Airfield :
LOGIN :

Register | Disclaimer

   EN    FR    IT 

 










Legend :    VFR   Marginal VFR   IFR   Intensive IFR   Very Intensive IFR
Visi :
Ceiling :
>= 8 km
>= 3000ft
5 to 8 km
1000 to 3000 ft
1500m to 5 km
500 to 1000 ft
800 to 1500m
200 to 500 ft
< 800m
< 200 ft
Symbols :   Thunderstorms  Fog  Heavy snow  Heavy precipitations  Wind > 20 kt
SIGMETs :     Misc.  Thunderstorms  Icing  Turbulence  Mountain Waves  Volcanic Ashes







- Airport Elevation : 204 ft
- IATA code : AGF
- Download approach charts


LFBA - Agen

CURRENT METAR :
  • 281230Z AUTO 29006KT 230V350 9999 OVC038 25/16 Q1018 NOSIG

EXPIRED METARs :
  • 281200Z AUTO 30007KT 260V360 9999 BKN039 26/17 Q1018 NOSIG
  • 281130Z AUTO 29008KT 260V330 9999 OVC035 25/16 Q1018 NOSIG
  • 281100Z AUTO 33007KT 260V070 9999 BKN033 24/16 Q1018 NOSIG
  • 281030Z AUTO 30006KT 260V010 9999 BKN032 24/16 Q1018 NOSIG
  • 281000Z AUTO 31005KT 240V010 9999 BKN032 23/15 Q1018 NOSIG

TAF TAF LFBA
Valid from the 28 at 09:00 until the 28 at 18:00 UTC


280800Z 2809/2818 33004KT 9999 BKN020
TEMPO 2812/2818 CAVOK
No reported NOTAMs for that airfield.



MET'MAP, your aeronautical weather chart ! - Copyright ORBIFLY December 2007 - Disclaimer

ORBIFLY MET'MAP TEAM :

Programming & Development : Alexandra Zaïnal
Concept & Development : Baudouin d'Aumeries
Co-Development & Prog : Marc-Olivier Méhu
Technical & hardware support : Manuel Goepfert

Contact : metmap@orbifly.com




SOURCES & CREDITS :

   NOAA